Terminal Aerodrome Forecast
Issued by NWS

Home | Current Version | Previous Version | Text Only | Print | Product List | Glossary Off
Versions: 1 2 3 4 5 6 7 8 9 10 11 12 13 14

693
FTUS43 KMPX 271124
TAFRWF
TAF
KRWF 271124Z 2712/2812 34003KT P6SM OVC035
     FM271400 03003KT P6SM BKN035 OVC100
     FM271600 04005KT P6SM SCT040 BKN110
     FM280000 10004KT P6SM SCT250=

USA.gov is the U.S. government's official web portal to all federal, state and local government web resources and services.